sensor_id;sensor_type;location;lat;lon;timestamp;pressure;altitude;pressure_sealevel;temperature;humidity
62333;BME280;48624;49.812;8.562;2023-03-21T00:00:27;100846.00;;;9.84;71.31
62333;BME280;48624;49.812;8.562;2023-03-21T00:02:52;100850.56;;;9.82;72.54
62333;BME280;48624;49.812;8.562;2023-03-21T00:05:18;100847.22;;;9.79;71.42
62333;BME280;48624;49.812;8.562;2023-03-21T00:07:45;100846.59;;;9.90;71.13
62333;BME280;48624;49.812;8.562;2023-03-21T00:10:10;100846.81;;;9.70;71.52
62333;BME280;48624;49.812;8.562;2023-03-21T00:12:36;100843.81;;;9.77;71.50
62333;BME280;48624;49.812;8.562;2023-03-21T00:15:05;100835.69;;;9.33;72.51
62333;BME280;48624;49.812;8.562;2023-03-21T00:17:31;100831.75;;;9.56;72.15
62333;BME280;48624;49.812;8.562;2023-03-21T00:19:58;100833.28;;;9.61;71.94
62333;BME280;48624;49.812;8.562;2023-03-21T00:22:24;100832.72;;;9.39;72.99
62333;BME280;48624;49.812;8.562;2023-03-21T00:24:50;100829.06;;;9.42;72.81
62333;BME280;48624;49.812;8.562;2023-03-21T00:27:16;100832.94;;;9.51;72.53
62333;BME280;48624;49.812;8.562;2023-03-21T00:29:44;100824.19;;;9.50;72.22
62333;BME280;48624;49.812;8.562;2023-03-21T00:32:09;100826.72;;;9.52;72.30
62333;BME280;48624;49.812;8.562;2023-03-21T00:34:36;100822.81;;;9.43;72.53
62333;BME280;48624;49.812;8.562;2023-03-21T00:37:02;100819.19;;;9.60;71.84
62333;BME280;48624;49.812;8.562;2023-03-21T00:39:27;100824.47;;;9.29;73.08
62333;BME280;48624;49.812;8.562;2023-03-21T00:41:53;100814.53;;;9.49;72.44
62333;BME280;48624;49.812;8.562;2023-03-21T00:44:18;100807.97;;;9.40;72.31
62333;BME280;48624;49.812;8.562;2023-03-21T00:46:43;100812.09;;;9.30;73.34
62333;BME280;48624;49.812;8.562;2023-03-21T00:49:09;100811.41;;;9.26;72.75
62333;BME280;48624;49.812;8.562;2023-03-21T00:51:34;100800.41;;;9.18;73.47
62333;BME280;48624;49.812;8.562;2023-03-21T00:54:00;100802.75;;;9.39;72.45
62333;BME280;48624;49.812;8.562;2023-03-21T00:56:25;100797.25;;;9.11;73.48
62333;BME280;48624;49.812;8.562;2023-03-21T00:58:51;100794.44;;;9.14;73.64
62333;BME280;48624;49.812;8.562;2023-03-21T01:01:17;100795.53;;;9.26;73.09
62333;BME280;48624;49.812;8.562;2023-03-21T01:03:42;100787.56;;;9.12;73.25
62333;BME280;48624;49.812;8.562;2023-03-21T01:06:15;100789.84;;;9.18;72.83
62333;BME280;48624;49.812;8.562;2023-03-21T01:08:44;100788.06;;;9.19;73.09
62333;BME280;48624;49.812;8.562;2023-03-21T01:11:14;100790.63;;;9.20;73.23
62333;BME280;48624;49.812;8.562;2023-03-21T01:13:41;100787.97;;;9.20;73.11
62333;BME280;48624;49.812;8.562;2023-03-21T01:16:07;100781.75;;;9.21;73.06
62333;BME280;48624;49.812;8.562;2023-03-21T01:18:34;100787.59;;;9.26;72.75
62333;BME280;48624;49.812;8.562;2023-03-21T01:21:00;100789.06;;;9.16;72.98
62333;BME280;48624;49.812;8.562;2023-03-21T01:23:29;100784.56;;;9.02;73.38
62333;BME280;48624;49.812;8.562;2023-03-21T01:25:55;100784.22;;;9.08;72.54
62333;BME280;48624;49.812;8.562;2023-03-21T01:28:23;100785.19;;;9.07;72.49
62333;BME280;48624;49.812;8.562;2023-03-21T01:30:50;100784.25;;;8.92;73.34
62333;BME280;48624;49.812;8.562;2023-03-21T01:33:16;100777.91;;;8.95;72.61
62333;BME280;48624;49.812;8.562;2023-03-21T01:35:42;100783.13;;;8.96;72.67
62333;BME280;48624;49.812;8.562;2023-03-21T01:38:08;100773.06;;;8.71;74.54
62333;BME280;48624;49.812;8.562;2023-03-21T01:40:34;100776.03;;;8.81;73.54
62333;BME280;48624;49.812;8.562;2023-03-21T01:43:02;100777.22;;;8.75;73.79
62333;BME280;48624;49.812;8.562;2023-03-21T01:48:32;100775.69;;;8.55;74.83
62333;BME280;48624;49.812;8.562;2023-03-21T01:50:59;100773.59;;;8.44;75.15
62333;BME280;48624;49.812;8.562;2023-03-21T01:53:26;100767.16;;;8.16;76.79
62333;BME280;48624;49.812;8.562;2023-03-21T01:55:57;100768.50;;;8.41;75.20
62333;BME280;48624;49.812;8.562;2023-03-21T01:58:25;100767.78;;;8.37;75.33
62333;BME280;48624;49.812;8.562;2023-03-21T02:00:50;100776.81;;;8.33;75.90
62333;BME280;48624;49.812;8.562;2023-03-21T02:03:16;100766.84;;;8.38;75.27
62333;BME280;48624;49.812;8.562;2023-03-21T02:05:55;100764.72;;;8.29;75.51
62333;BME280;48624;49.812;8.562;2023-03-21T02:08:24;100755.69;;;8.33;75.41
62333;BME280;48624;49.812;8.562;2023-03-21T02:10:51;100764.72;;;8.29;75.47
62333;BME280;48624;49.812;8.562;2023-03-21T02:13:16;100765.72;;;8.26;75.23
62333;BME280;48624;49.812;8.562;2023-03-21T02:15:50;100763.50;;;8.18;75.87
62333;BME280;48624;49.812;8.562;2023-03-21T02:18:26;100755.06;;;8.12;76.39
62333;BME280;48624;49.812;8.562;2023-03-21T02:32:10;100743.44;;;7.63;79.48
62333;BME280;48624;49.812;8.562;2023-03-21T02:37:38;100738.97;;;7.47;80.20
62333;BME280;48624;49.812;8.562;2023-03-21T02:40:11;100741.84;;;7.43;80.29
62333;BME280;48624;49.812;8.562;2023-03-21T02:43:06;100735.69;;;7.42;79.61
62333;BME280;48624;49.812;8.562;2023-03-21T02:45:48;100730.53;;;7.41;80.83
62333;BME280;48624;49.812;8.562;2023-03-21T02:48:21;100740.44;;;7.53;79.41
62333;BME280;48624;49.812;8.562;2023-03-21T02:50:51;100740.28;;;7.56;79.73
62333;BME280;48624;49.812;8.562;2023-03-21T02:53:23;100739.13;;;7.62;79.45
62333;BME280;48624;49.812;8.562;2023-03-21T02:55:50;100741.50;;;7.49;80.71
62333;BME280;48624;49.812;8.562;2023-03-21T02:58:19;100728.66;;;7.60;80.28
62333;BME280;48624;49.812;8.562;2023-03-21T03:00:46;100734.41;;;7.69;80.20
62333;BME280;48624;49.812;8.562;2023-03-21T03:03:12;100733.75;;;7.81;79.31
62333;BME280;48624;49.812;8.562;2023-03-21T03:05:47;100729.09;;;7.86;78.97
62333;BME280;48624;49.812;8.562;2023-03-21T03:08:18;100734.13;;;7.91;78.92
62333;BME280;48624;49.812;8.562;2023-03-21T03:21:55;100727.94;;;7.92;78.17
62333;BME280;48624;49.812;8.562;2023-03-21T03:24:06;100727.25;;;7.88;78.15
62333;BME280;48624;49.812;8.562;2023-03-21T03:27:11;100723.31;;;7.96;77.18
62333;BME280;48624;49.812;8.562;2023-03-21T03:29:41;100719.91;;;7.94;77.81
62333;BME280;48624;49.812;8.562;2023-03-21T03:32:28;100724.66;;;7.87;77.83
62333;BME280;48624;49.812;8.562;2023-03-21T03:34:56;100714.78;;;8.08;76.32
62333;BME280;48624;49.812;8.562;2023-03-21T03:37:32;100723.50;;;7.93;77.37
62333;BME280;48624;49.812;8.562;2023-03-21T03:42:34;100719.47;;;7.85;78.47
62333;BME280;48624;49.812;8.562;2023-03-21T03:45:02;100718.78;;;7.82;78.96
62333;BME280;48624;49.812;8.562;2023-03-21T03:47:43;100717.47;;;7.90;78.14
62333;BME280;48624;49.812;8.562;2023-03-21T03:52:45;100716.88;;;8.01;78.01
62333;BME280;48624;49.812;8.562;2023-03-21T03:55:15;100708.28;;;7.98;78.31
62333;BME280;48624;49.812;8.562;2023-03-21T03:57:42;100705.56;;;7.99;78.61
62333;BME280;48624;49.812;8.562;2023-03-21T04:00:10;100704.97;;;7.94;78.75
62333;BME280;48624;49.812;8.562;2023-03-21T04:02:37;100704.78;;;7.97;78.93
62333;BME280;48624;49.812;8.562;2023-03-21T04:05:04;100696.34;;;7.90;79.35
62333;BME280;48624;49.812;8.562;2023-03-21T04:07:30;100697.75;;;7.98;78.73
62333;BME280;48624;49.812;8.562;2023-03-21T04:09:56;100704.97;;;7.94;79.20
62333;BME280;48624;49.812;8.562;2023-03-21T04:12:23;100697.75;;;7.98;78.84
62333;BME280;48624;49.812;8.562;2023-03-21T04:14:49;100697.81;;;7.96;79.21
62333;BME280;48624;49.812;8.562;2023-03-21T04:17:15;100697.97;;;7.93;78.93
62333;BME280;48624;49.812;8.562;2023-03-21T04:19:41;100703.59;;;8.03;78.99
62333;BME280;48624;49.812;8.562;2023-03-21T04:22:07;100695.00;;;7.99;79.21
62333;BME280;48624;49.812;8.562;2023-03-21T04:24:32;100701.47;;;7.94;78.89
62333;BME280;48624;49.812;8.562;2023-03-21T04:26:58;100698.47;;;7.84;79.79
62333;BME280;48624;49.812;8.562;2023-03-21T04:29:23;100689.50;;;7.86;79.58
62333;BME280;48624;49.812;8.562;2023-03-21T04:31:50;100711.41;;;7.88;79.39
62333;BME280;48624;49.812;8.562;2023-03-21T04:34:15;100702.63;;;7.88;79.44
62333;BME280;48624;49.812;8.562;2023-03-21T04:36:40;100701.25;;;7.63;81.64
62333;BME280;48624;49.812;8.562;2023-03-21T04:39:10;100695.28;;;7.77;80.10
62333;BME280;48624;49.812;8.562;2023-03-21T04:41:39;100688.75;;;7.84;79.56
62333;BME280;48624;49.812;8.562;2023-03-21T04:44:06;100698.78;;;7.77;79.99
62333;BME280;48624;49.812;8.562;2023-03-21T04:46:32;100703.19;;;7.77;79.53
62333;BME280;48624;49.812;8.562;2023-03-21T04:48:58;100699.91;;;7.56;81.63
62333;BME280;48624;49.812;8.562;2023-03-21T04:51:24;100703.91;;;7.63;80.92
62333;BME280;48624;49.812;8.562;2023-03-21T04:53:49;100703.53;;;7.53;81.55
62333;BME280;48624;49.812;8.562;2023-03-21T04:56:17;100698.38;;;7.68;80.10
62333;BME280;48624;49.812;8.562;2023-03-21T04:58:42;100711.59;;;7.50;81.62
62333;BME280;48624;49.812;8.562;2023-03-21T05:01:08;100706.16;;;7.53;81.43
62333;BME280;48624;49.812;8.562;2023-03-21T05:03:33;100708.94;;;7.68;81.09
62333;BME280;48624;49.812;8.562;2023-03-21T05:06:07;100710.03;;;7.63;81.50
62333;BME280;48624;49.812;8.562;2023-03-21T05:08:35;100700.78;;;7.72;81.34
62333;BME280;48624;49.812;8.562;2023-03-21T05:11:02;100705.28;;;7.70;81.50
62333;BME280;48624;49.812;8.562;2023-03-21T05:13:28;100694.97;;;7.66;81.61
62333;BME280;48624;49.812;8.562;2023-03-21T05:15:53;100694.25;;;7.80;81.28
62333;BME280;48624;49.812;8.562;2023-03-21T05:18:18;100688.84;;;7.83;81.07
62333;BME280;48624;49.812;8.562;2023-03-21T05:20:49;100691.91;;;7.91;80.30
62333;BME280;48624;49.812;8.562;2023-03-21T05:23:20;100683.00;;;7.94;80.45
62333;BME280;48624;49.812;8.562;2023-03-21T05:25:48;100681.47;;;7.89;80.84
62333;BME280;48624;49.812;8.562;2023-03-21T05:28:13;100687.91;;;7.84;80.94
62333;BME280;48624;49.812;8.562;2023-03-21T05:30:45;100688.22;;;7.77;81.31
62333;BME280;48624;49.812;8.562;2023-03-21T05:33:11;100689.28;;;7.91;80.92
62333;BME280;48624;49.812;8.562;2023-03-21T05:35:38;100679.09;;;8.01;79.78
62333;BME280;48624;49.812;8.562;2023-03-21T05:38:03;100680.69;;;7.87;80.87
62333;BME280;48624;49.812;8.562;2023-03-21T05:40:29;100669.78;;;7.94;80.51
62333;BME280;48624;49.812;8.562;2023-03-21T05:42:54;100678.38;;;7.81;81.13
62333;BME280;48624;49.812;8.562;2023-03-21T05:45:19;100673.53;;;7.89;80.59
62333;BME280;48624;49.812;8.562;2023-03-21T05:47:45;100672.44;;;7.94;79.74
62333;BME280;48624;49.812;8.562;2023-03-21T05:50:12;100681.69;;;7.85;80.70
62333;BME280;48624;49.812;8.562;2023-03-21T05:52:39;100680.53;;;7.90;80.51
62333;BME280;48624;49.812;8.562;2023-03-21T05:55:05;100673.78;;;7.85;81.08
62333;BME280;48624;49.812;8.562;2023-03-21T05:57:31;100679.59;;;7.91;80.50
62333;BME280;48624;49.812;8.562;2023-03-21T05:59:59;100671.50;;;7.95;80.67
62333;BME280;48624;49.812;8.562;2023-03-21T06:02:25;100683.75;;;7.96;80.56
62333;BME280;48624;49.812;8.562;2023-03-21T06:04:50;100678.22;;;8.00;80.75
62333;BME280;48624;49.812;8.562;2023-03-21T06:07:15;100673.19;;;7.96;81.21
62333;BME280;48624;49.812;8.562;2023-03-21T06:09:41;100671.59;;;7.93;81.00
62333;BME280;48624;49.812;8.562;2023-03-21T06:12:07;100676.69;;;7.96;81.16
62333;BME280;48624;49.812;8.562;2023-03-21T06:14:33;100684.41;;;8.17;80.48
62333;BME280;48624;49.812;8.562;2023-03-21T06:16:58;100679.44;;;8.11;80.71
62333;BME280;48624;49.812;8.562;2023-03-21T06:19:25;100684.38;;;8.01;80.50
62333;BME280;48624;49.812;8.562;2023-03-21T06:21:50;100689.91;;;8.12;80.45
62333;BME280;48624;49.812;8.562;2023-03-21T06:24:16;100688.41;;;8.24;80.75
62333;BME280;48624;49.812;8.562;2023-03-21T06:26:42;100696.47;;;8.55;80.08
62333;BME280;48624;49.812;8.562;2023-03-21T06:29:07;100699.09;;;8.71;79.43
62333;BME280;48624;49.812;8.562;2023-03-21T06:31:33;100694.84;;;8.68;79.15
62333;BME280;48624;49.812;8.562;2023-03-21T06:33:59;100693.53;;;8.92;78.92
62333;BME280;48624;49.812;8.562;2023-03-21T06:36:25;100690.22;;;8.88;78.31
62333;BME280;48624;49.812;8.562;2023-03-21T06:38:50;100694.19;;;9.11;78.10
62333;BME280;48624;49.812;8.562;2023-03-21T06:41:17;100697.69;;;9.12;77.77
62333;BME280;48624;49.812;8.562;2023-03-21T06:43:44;100699.16;;;9.32;77.67
62333;BME280;48624;49.812;8.562;2023-03-21T06:46:10;100702.94;;;9.42;76.49
62333;BME280;48624;49.812;8.562;2023-03-21T06:48:35;100695.34;;;9.52;76.13
62333;BME280;48624;49.812;8.562;2023-03-21T06:51:01;100699.28;;;9.45;75.69
62333;BME280;48624;49.812;8.562;2023-03-21T06:53:29;100692.50;;;9.55;76.30
62333;BME280;48624;49.812;8.562;2023-03-21T06:55:55;100704.50;;;9.47;76.10
62333;BME280;48624;49.812;8.562;2023-03-21T06:58:22;100696.50;;;9.63;75.97
62333;BME280;48624;49.812;8.562;2023-03-21T07:00:48;100693.44;;;9.54;75.80
62333;BME280;48624;49.812;8.562;2023-03-21T07:03:14;100701.78;;;9.32;76.53
62333;BME280;48624;49.812;8.562;2023-03-21T07:05:40;100693.81;;;9.48;76.58
62333;BME280;48624;49.812;8.562;2023-03-21T07:08:07;100693.38;;;9.56;76.73
62333;BME280;48624;49.812;8.562;2023-03-21T07:10:40;100699.13;;;9.63;76.77
62333;BME280;48624;49.812;8.562;2023-03-21T07:13:06;100698.69;;;9.85;76.38
62333;BME280;48624;49.812;8.562;2023-03-21T07:15:31;100701.81;;;9.92;76.56
62333;BME280;48624;49.812;8.562;2023-03-21T07:17:58;100706.44;;;10.03;76.02
62333;BME280;48624;49.812;8.562;2023-03-21T07:20:24;100700.03;;;9.92;74.75
62333;BME280;48624;49.812;8.562;2023-03-21T07:22:50;100704.34;;;9.79;74.61
62333;BME280;48624;49.812;8.562;2023-03-21T07:25:16;100712.19;;;9.95;75.02
62333;BME280;48624;49.812;8.562;2023-03-21T07:27:41;100717.41;;;10.25;74.32
62333;BME280;48624;49.812;8.562;2023-03-21T07:30:08;100714.56;;;10.14;74.27
62333;BME280;48624;49.812;8.562;2023-03-21T07:32:35;100711.44;;;10.51;73.79
62333;BME280;48624;49.812;8.562;2023-03-21T07:35:02;100709.72;;;10.64;73.83
62333;BME280;48624;49.812;8.562;2023-03-21T07:37:27;100708.13;;;10.62;73.38
62333;BME280;48624;49.812;8.562;2023-03-21T07:39:53;100702.44;;;10.68;73.68
62333;BME280;48624;49.812;8.562;2023-03-21T07:42:18;100709.88;;;10.76;73.39
62333;BME280;48624;49.812;8.562;2023-03-21T07:44:44;100708.31;;;10.59;72.71
62333;BME280;48624;49.812;8.562;2023-03-21T07:47:09;100708.22;;;10.88;73.16
62333;BME280;48624;49.812;8.562;2023-03-21T07:49:35;100699.41;;;10.87;72.81
62333;BME280;48624;49.812;8.562;2023-03-21T07:52:01;100705.31;;;11.05;72.09
62333;BME280;48624;49.812;8.562;2023-03-21T07:54:26;100703.94;;;11.13;71.52
62333;BME280;48624;49.812;8.562;2023-03-21T07:56:53;100705.84;;;11.10;71.84
62333;BME280;48624;49.812;8.562;2023-03-21T07:59:18;100706.25;;;10.91;72.16
62333;BME280;48624;49.812;8.562;2023-03-21T08:01:44;100710.38;;;10.95;72.99
62333;BME280;48624;49.812;8.562;2023-03-21T08:04:11;100703.91;;;11.27;72.18
62333;BME280;48624;49.812;8.562;2023-03-21T08:06:36;100705.34;;;11.18;71.71
62333;BME280;48624;49.812;8.562;2023-03-21T08:09:02;100702.88;;;11.56;71.59
62333;BME280;48624;49.812;8.562;2023-03-21T08:11:27;100699.38;;;11.55;71.13
62333;BME280;48624;49.812;8.562;2023-03-21T08:13:56;100707.88;;;11.86;69.53
62333;BME280;48624;49.812;8.562;2023-03-21T08:16:21;100702.03;;;11.55;70.16
62333;BME280;48624;49.812;8.562;2023-03-21T08:18:46;100698.53;;;11.80;69.95
62333;BME280;48624;49.812;8.562;2023-03-21T08:21:11;100704.16;;;11.76;69.42
62333;BME280;48624;49.812;8.562;2023-03-21T08:23:37;100696.81;;;12.18;69.11
62333;BME280;48624;49.812;8.562;2023-03-21T08:26:02;100688.72;;;12.33;68.37
62333;BME280;48624;49.812;8.562;2023-03-21T08:28:28;100698.06;;;12.39;67.89
62333;BME280;48624;49.812;8.562;2023-03-21T08:30:53;100698.13;;;12.87;65.76
62333;BME280;48624;49.812;8.562;2023-03-21T08:33:19;100697.38;;;13.10;64.94
62333;BME280;48624;49.812;8.562;2023-03-21T08:35:44;100694.50;;;13.49;64.00
62333;BME280;48624;49.812;8.562;2023-03-21T08:38:10;100700.97;;;13.33;62.36
62333;BME280;48624;49.812;8.562;2023-03-21T08:40:36;100705.19;;;13.24;62.64
62333;BME280;48624;49.812;8.562;2023-03-21T08:43:02;100702.06;;;13.66;61.30
62333;BME280;48624;49.812;8.562;2023-03-21T08:45:28;100694.34;;;13.86;58.62
62333;BME280;48624;49.812;8.562;2023-03-21T08:47:53;100701.97;;;13.91;58.56
62333;BME280;48624;49.812;8.562;2023-03-21T08:50:24;100696.03;;;13.98;58.15
62333;BME280;48624;49.812;8.562;2023-03-21T08:52:50;100700.03;;;13.93;59.15
62333;BME280;48624;49.812;8.562;2023-03-21T08:55:17;100701.59;;;14.18;58.84
62333;BME280;48624;49.812;8.562;2023-03-21T08:57:43;100701.59;;;14.07;58.57
62333;BME280;48624;49.812;8.562;2023-03-21T09:00:11;100699.41;;;13.89;57.78
62333;BME280;48624;49.812;8.562;2023-03-21T09:02:48;100700.28;;;14.01;59.10
62333;BME280;48624;49.812;8.562;2023-03-21T09:05:16;100703.19;;;14.09;57.84
62333;BME280;48624;49.812;8.562;2023-03-21T09:07:43;100698.28;;;13.69;58.55
62333;BME280;48624;49.812;8.562;2023-03-21T09:10:11;100696.75;;;13.78;60.08
62333;BME280;48624;49.812;8.562;2023-03-21T09:12:38;100704.63;;;14.02;58.08
62333;BME280;48624;49.812;8.562;2023-03-21T09:15:03;100697.09;;;13.73;57.16
62333;BME280;48624;49.812;8.562;2023-03-21T09:17:30;100691.88;;;14.40;55.33
62333;BME280;48624;49.812;8.562;2023-03-21T09:19:57;100694.31;;;14.20;54.95
62333;BME280;48624;49.812;8.562;2023-03-21T09:22:27;100692.69;;;14.63;54.46
62333;BME280;48624;49.812;8.562;2023-03-21T09:24:52;100687.50;;;14.62;55.09
62333;BME280;48624;49.812;8.562;2023-03-21T09:27:18;100695.50;;;14.62;54.89
62333;BME280;48624;49.812;8.562;2023-03-21T09:29:49;100692.28;;;14.79;54.16
62333;BME280;48624;49.812;8.562;2023-03-21T09:32:14;100689.03;;;14.64;55.28
62333;BME280;48624;49.812;8.562;2023-03-21T09:34:41;100695.72;;;14.81;54.50
62333;BME280;48624;49.812;8.562;2023-03-21T09:37:09;100684.06;;;14.60;56.30
62333;BME280;48624;49.812;8.562;2023-03-21T09:39:38;100693.81;;;14.61;55.81
62333;BME280;48624;49.812;8.562;2023-03-21T09:42:18;100695.25;;;14.53;54.46
62333;BME280;48624;49.812;8.562;2023-03-21T09:47:24;100692.94;;;14.60;54.37
62333;BME280;48624;49.812;8.562;2023-03-21T09:50:13;100687.44;;;14.29;55.10
62333;BME280;48624;49.812;8.562;2023-03-21T09:52:52;100686.53;;;14.51;55.06
62333;BME280;48624;49.812;8.562;2023-03-21T09:55:22;100686.06;;;14.46;55.71
62333;BME280;48624;49.812;8.562;2023-03-21T10:00:49;100686.97;;;14.68;54.42
62333;BME280;48624;49.812;8.562;2023-03-21T10:03:30;100687.63;;;14.49;55.93
62333;BME280;48624;49.812;8.562;2023-03-21T10:05:59;100691.38;;;14.46;55.84
62333;BME280;48624;49.812;8.562;2023-03-21T10:08:33;100692.59;;;14.53;56.59
62333;BME280;48624;49.812;8.562;2023-03-21T10:13:41;100689.84;;;14.88;53.44
62333;BME280;48624;49.812;8.562;2023-03-21T10:16:18;100686.84;;;14.69;54.65
62333;BME280;48624;49.812;8.562;2023-03-21T10:18:48;100690.22;;;14.83;54.15
62333;BME280;48624;49.812;8.562;2023-03-21T10:21:26;100685.72;;;14.95;53.46
62333;BME280;48624;49.812;8.562;2023-03-21T10:23:54;100684.59;;;14.53;54.69
62333;BME280;48624;49.812;8.562;2023-03-21T10:26:23;100679.50;;;14.73;54.16
62333;BME280;48624;49.812;8.562;2023-03-21T10:28:53;100684.06;;;14.71;54.33
62333;BME280;48624;49.812;8.562;2023-03-21T10:31:21;100682.38;;;14.81;55.12
62333;BME280;48624;49.812;8.562;2023-03-21T10:33:52;100683.22;;;14.70;56.03
62333;BME280;48624;49.812;8.562;2023-03-21T10:36:26;100679.50;;;14.62;55.12
62333;BME280;48624;49.812;8.562;2023-03-21T10:38:58;100682.16;;;14.73;55.50
62333;BME280;48624;49.812;8.562;2023-03-21T10:41:24;100681.03;;;14.64;56.16
62333;BME280;48624;49.812;8.562;2023-03-21T10:44:13;100678.59;;;14.84;56.36
62333;BME280;48624;49.812;8.562;2023-03-21T10:46:50;100683.69;;;14.87;55.40
62333;BME280;48624;49.812;8.562;2023-03-21T10:49:16;100681.78;;;14.55;56.32
62333;BME280;48624;49.812;8.562;2023-03-21T10:51:43;100677.72;;;14.39;57.11
62333;BME280;48624;49.812;8.562;2023-03-21T10:54:15;100672.06;;;14.65;56.94
62333;BME280;48624;49.812;8.562;2023-03-21T10:57:19;100676.50;;;14.32;60.92
62333;BME280;48624;49.812;8.562;2023-03-21T10:59:52;100674.72;;;13.98;62.47
62333;BME280;48624;49.812;8.562;2023-03-21T11:02:29;100682.44;;;14.36;62.43
62333;BME280;48624;49.812;8.562;2023-03-21T11:05:16;100680.03;;;14.21;63.34
62333;BME280;48624;49.812;8.562;2023-03-21T11:07:43;100687.53;;;14.27;63.73
62333;BME280;48624;49.812;8.562;2023-03-21T11:10:15;100675.81;;;13.96;65.76
62333;BME280;48624;49.812;8.562;2023-03-21T11:12:46;100686.22;;;14.10;65.01
62333;BME280;48624;49.812;8.562;2023-03-21T11:18:14;100675.91;;;13.71;68.67
62333;BME280;48624;49.812;8.562;2023-03-21T11:20:54;100677.09;;;13.56;72.22
62333;BME280;48624;49.812;8.562;2023-03-21T11:23:25;100676.25;;;13.67;70.79
62333;BME280;48624;49.812;8.562;2023-03-21T11:25:52;100674.31;;;13.46;72.91
62333;BME280;48624;49.812;8.562;2023-03-21T11:28:20;100674.41;;;13.56;72.86
62333;BME280;48624;49.812;8.562;2023-03-21T11:30:54;100682.22;;;13.35;75.46
62333;BME280;48624;49.812;8.562;2023-03-21T11:33:24;100675.69;;;13.39;75.01
62333;BME280;48624;49.812;8.562;2023-03-21T11:36:06;100671.19;;;12.92;80.46
62333;BME280;48624;49.812;8.562;2023-03-21T11:38:37;100663.22;;;13.28;76.00
62333;BME280;48624;49.812;8.562;2023-03-21T11:41:04;100667.44;;;13.30;75.46
62333;BME280;48624;49.812;8.562;2023-03-21T11:43:36;100672.94;;;13.04;78.86
62333;BME280;48624;49.812;8.562;2023-03-21T11:46:13;100667.66;;;13.16;79.94
62333;BME280;48624;49.812;8.562;2023-03-21T11:48:42;100664.06;;;12.93;81.40
62333;BME280;48624;49.812;8.562;2023-03-21T11:54:15;100658.75;;;12.93;79.26
62333;BME280;48624;49.812;8.562;2023-03-21T11:56:52;100649.00;;;13.04;78.00
62333;BME280;48624;49.812;8.562;2023-03-21T12:02:06;100654.56;;;13.13;79.07
62333;BME280;48624;49.812;8.562;2023-03-21T12:10:38;100640.47;;;13.24;74.05
62333;BME280;48624;49.812;8.562;2023-03-21T12:18:37;100613.78;;;12.65;76.15
62333;BME280;48624;49.812;8.562;2023-03-21T12:21:33;100618.09;;;13.15;77.51
62333;BME280;48624;49.812;8.562;2023-03-21T12:24:21;100614.06;;;13.56;77.23
62333;BME280;48624;49.812;8.562;2023-03-21T12:27:17;100601.78;;;13.42;71.07
62333;BME280;48624;49.812;8.562;2023-03-21T12:33:11;100594.56;;;13.56;72.42
62333;BME280;48624;49.812;8.562;2023-03-21T12:41:24;100583.22;;;13.77;67.96
62333;BME280;48624;49.812;8.562;2023-03-21T12:43:59;100584.75;;;14.02;69.63
62333;BME280;48624;49.812;8.562;2023-03-21T12:49:14;100586.00;;;14.31;72.70
62333;BME280;48624;49.812;8.562;2023-03-21T12:51:44;100578.41;;;14.26;69.45
62333;BME280;48624;49.812;8.562;2023-03-21T12:57:11;100571.94;;;14.40;68.32
62333;BME280;48624;49.812;8.562;2023-03-21T12:59:53;100567.41;;;14.52;68.36
62333;BME280;48624;49.812;8.562;2023-03-21T13:02:37;100562.56;;;14.13;69.32
62333;BME280;48624;49.812;8.562;2023-03-21T13:05:26;100557.59;;;14.20;67.38
62333;BME280;48624;49.812;8.562;2023-03-21T13:10:23;100557.00;;;14.16;68.11
62333;BME280;48624;49.812;8.562;2023-03-21T13:12:57;100553.47;;;14.15;69.20
62333;BME280;48624;49.812;8.562;2023-03-21T13:18:34;100546.38;;;14.05;68.51
62333;BME280;48624;49.812;8.562;2023-03-21T13:21:39;100547.25;;;13.82;70.80
62333;BME280;48624;49.812;8.562;2023-03-21T13:24:42;100546.88;;;13.98;68.51
62333;BME280;48624;49.812;8.562;2023-03-21T13:27:26;100547.56;;;14.00;73.29
62333;BME280;48624;49.812;8.562;2023-03-21T13:29:58;100539.63;;;13.89;74.36
62333;BME280;48624;49.812;8.562;2023-03-21T13:32:49;100529.81;;;13.78;75.25
62333;BME280;48624;49.812;8.562;2023-03-21T13:35:18;100539.63;;;13.55;77.98
62333;BME280;48624;49.812;8.562;2023-03-21T13:38:00;100533.22;;;13.57;79.72
62333;BME280;48624;49.812;8.562;2023-03-21T13:40:37;100537.09;;;13.65;80.25
62333;BME280;48624;49.812;8.562;2023-03-21T13:43:03;100532.53;;;13.55;81.74
62333;BME280;48624;49.812;8.562;2023-03-21T13:45:47;100533.59;;;13.64;80.46
62333;BME280;48624;49.812;8.562;2023-03-21T13:51:07;100528.84;;;13.91;78.97
62333;BME280;48624;49.812;8.562;2023-03-21T13:53:40;100525.13;;;13.70;80.26
62333;BME280;48624;49.812;8.562;2023-03-21T13:56:21;100523.66;;;13.55;80.80
62333;BME280;48624;49.812;8.562;2023-03-21T13:58:50;100523.28;;;13.37;82.64
62333;BME280;48624;49.812;8.562;2023-03-21T14:01:35;100521.47;;;13.26;81.53
62333;BME280;48624;49.812;8.562;2023-03-21T14:04:12;100498.50;;;13.13;83.42
62333;BME280;48624;49.812;8.562;2023-03-21T14:06:45;100509.94;;;12.91;81.14
62333;BME280;48624;49.812;8.562;2023-03-21T14:09:24;100503.31;;;13.08;81.21
62333;BME280;48624;49.812;8.562;2023-03-21T14:11:55;100503.31;;;13.08;86.06
62333;BME280;48624;49.812;8.562;2023-03-21T14:14:23;100501.41;;;13.22;85.32
62333;BME280;48624;49.812;8.562;2023-03-21T14:16:54;100507.91;;;13.06;87.33
62333;BME280;48624;49.812;8.562;2023-03-21T14:19:31;100507.44;;;13.24;85.20
62333;BME280;48624;49.812;8.562;2023-03-21T14:21:57;100497.06;;;13.09;84.79
62333;BME280;48624;49.812;8.562;2023-03-21T14:24:22;100506.31;;;13.03;84.13
62333;BME280;48624;49.812;8.562;2023-03-21T14:26:50;100502.59;;;12.95;85.30
62333;BME280;48624;49.812;8.562;2023-03-21T14:29:24;100502.81;;;12.92;84.60
62333;BME280;48624;49.812;8.562;2023-03-21T14:31:54;100488.91;;;12.76;87.52